sensor_id;sensor_type;location;lat;lon;timestamp;pressure;altitude;pressure_sealevel;temperature;humidity
35892;BME280;21993;42.672;23.296;2023-05-10T00:01:40;94961.06;;;11.38;80.11
35892;BME280;21993;42.672;23.296;2023-05-10T00:04:06;94964.44;;;11.60;79.59
35892;BME280;21993;42.672;23.296;2023-05-10T00:06:31;94964.41;;;11.50;78.83
35892;BME280;21993;42.672;23.296;2023-05-10T00:08:57;94969.78;;;11.39;79.33
35892;BME280;21993;42.672;23.296;2023-05-10T00:11:22;94954.81;;;11.30;79.99
35892;BME280;21993;42.672;23.296;2023-05-10T00:13:48;94953.19;;;11.38;79.59
35892;BME280;21993;42.672;23.296;2023-05-10T00:16:13;94954.72;;;11.50;79.31
35892;BME280;21993;42.672;23.296;2023-05-10T00:18:39;94959.13;;;11.40;79.82
35892;BME280;21993;42.672;23.296;2023-05-10T00:21:05;94946.13;;;11.29;79.54
35892;BME280;21993;42.672;23.296;2023-05-10T00:23:31;94949.81;;;11.26;79.58
35892;BME280;21993;42.672;23.296;2023-05-10T00:25:57;94951.91;;;11.23;79.51
35892;BME280;21993;42.672;23.296;2023-05-10T00:28:22;94953.16;;;11.28;79.85
35892;BME280;21993;42.672;23.296;2023-05-10T00:30:48;94944.97;;;11.22;79.82
35892;BME280;21993;42.672;23.296;2023-05-10T00:33:13;94948.94;;;11.07;80.13
35892;BME280;21993;42.672;23.296;2023-05-10T00:35:39;94952.16;;;11.10;79.92
35892;BME280;21993;42.672;23.296;2023-05-10T00:38:04;94951.41;;;10.68;79.96
35892;BME280;21993;42.672;23.296;2023-05-10T00:40:29;94945.06;;;10.50;81.08
35892;BME280;21993;42.672;23.296;2023-05-10T00:42:56;94948.38;;;10.73;81.39
35892;BME280;21993;42.672;23.296;2023-05-10T00:45:21;94937.94;;;10.92;80.93
35892;BME280;21993;42.672;23.296;2023-05-10T00:47:47;94939.19;;;10.88;80.21
35892;BME280;21993;42.672;23.296;2023-05-10T00:50:14;94934.03;;;10.77;80.21
35892;BME280;21993;42.672;23.296;2023-05-10T00:52:39;94939.75;;;10.91;80.17
35892;BME280;21993;42.672;23.296;2023-05-10T00:55:06;94933.69;;;10.39;81.11
35892;BME280;21993;42.672;23.296;2023-05-10T00:57:32;94930.50;;;10.66;81.21
35892;BME280;21993;42.672;23.296;2023-05-10T00:59:58;94937.63;;;10.55;80.33
35892;BME280;21993;42.672;23.296;2023-05-10T01:02:24;94939.16;;;10.57;80.54
35892;BME280;21993;42.672;23.296;2023-05-10T01:04:50;94927.19;;;10.64;80.53
35892;BME280;21993;42.672;23.296;2023-05-10T01:07:15;94929.81;;;10.64;80.15
35892;BME280;21993;42.672;23.296;2023-05-10T01:09:40;94924.38;;;10.77;79.91
35892;BME280;21993;42.672;23.296;2023-05-10T01:12:06;94934.03;;;10.77;79.47
35892;BME280;21993;42.672;23.296;2023-05-10T01:14:32;94935.38;;;10.71;79.86
35892;BME280;21993;42.672;23.296;2023-05-10T01:16:59;94928.34;;;10.71;79.93
35892;BME280;21993;42.672;23.296;2023-05-10T01:19:27;94927.22;;;10.74;79.96
35892;BME280;21993;42.672;23.296;2023-05-10T01:31:08;94918.53;;;10.43;80.77
35892;BME280;21993;42.672;23.296;2023-05-10T01:33:44;94915.81;;;10.54;80.51
35892;BME280;21993;42.672;23.296;2023-05-10T01:44:37;94898.72;;;10.39;79.44
35892;BME280;21993;42.672;23.296;2023-05-10T01:47:12;94892.94;;;10.35;79.33
35892;BME280;21993;42.672;23.296;2023-05-10T01:49:54;94903.59;;;10.23;79.42
35892;BME280;21993;42.672;23.296;2023-05-10T01:52:29;94894.16;;;9.99;79.57
35892;BME280;21993;42.672;23.296;2023-05-10T01:55:00;94892.69;;;10.06;79.51
35892;BME280;21993;42.672;23.296;2023-05-10T01:57:32;94913.38;;;10.21;79.32
35892;BME280;21993;42.672;23.296;2023-05-10T01:59:59;94916.25;;;10.18;78.79
35892;BME280;21993;42.672;23.296;2023-05-10T02:02:27;94894.13;;;10.10;78.92
35892;BME280;21993;42.672;23.296;2023-05-10T02:04:55;94907.53;;;10.17;79.19
35892;BME280;21993;42.672;23.296;2023-05-10T02:07:23;94906.69;;;10.28;77.38
35892;BME280;21993;42.672;23.296;2023-05-10T02:09:49;94913.47;;;10.30;77.52
35892;BME280;21993;42.672;23.296;2023-05-10T02:12:16;94903.47;;;10.45;77.01
35892;BME280;21993;42.672;23.296;2023-05-10T02:14:43;94898.28;;;10.34;77.24
35892;BME280;21993;42.672;23.296;2023-05-10T02:17:09;94898.47;;;10.21;77.16
35892;BME280;21993;42.672;23.296;2023-05-10T02:19:40;94898.66;;;10.08;76.48
35892;BME280;21993;42.672;23.296;2023-05-10T02:22:06;94910.78;;;9.88;77.14
35892;BME280;21993;42.672;23.296;2023-05-10T02:24:34;94888.72;;;9.91;77.20
35892;BME280;21993;42.672;23.296;2023-05-10T02:27:02;94902.84;;;9.79;75.29
35892;BME280;21993;42.672;23.296;2023-05-10T02:29:29;94900.94;;;9.81;74.02
35892;BME280;21993;42.672;23.296;2023-05-10T02:31:57;94926.13;;;9.72;74.32
35892;BME280;21993;42.672;23.296;2023-05-10T02:34:23;94906.91;;;9.51;72.94
35892;BME280;21993;42.672;23.296;2023-05-10T02:36:50;94896.84;;;9.24;72.71
35892;BME280;21993;42.672;23.296;2023-05-10T02:39:19;94903.31;;;9.09;72.43
35892;BME280;21993;42.672;23.296;2023-05-10T02:41:46;94907.94;;;9.27;72.46
35892;BME280;21993;42.672;23.296;2023-05-10T02:44:14;94891.94;;;9.30;72.49
35892;BME280;21993;42.672;23.296;2023-05-10T02:46:40;94903.16;;;9.21;73.08
35892;BME280;21993;42.672;23.296;2023-05-10T02:49:05;94907.72;;;9.08;71.79
35892;BME280;21993;42.672;23.296;2023-05-10T02:51:35;94906.03;;;9.18;72.68
35892;BME280;21993;42.672;23.296;2023-05-10T02:54:07;94893.16;;;9.15;73.46
35892;BME280;21993;42.672;23.296;2023-05-10T02:56:36;94907.69;;;9.19;73.29
35892;BME280;21993;42.672;23.296;2023-05-10T02:59:01;94896.44;;;9.40;72.85
35892;BME280;21993;42.672;23.296;2023-05-10T03:01:27;94905.03;;;9.42;72.45
35892;BME280;21993;42.672;23.296;2023-05-10T03:03:52;94901.94;;;9.37;72.84
35892;BME280;21993;42.672;23.296;2023-05-10T03:06:18;94900.06;;;9.27;73.13
35892;BME280;21993;42.672;23.296;2023-05-10T03:08:44;94905.03;;;9.42;73.32
35892;BME280;21993;42.672;23.296;2023-05-10T03:16:54;94902.81;;;9.15;72.65
35892;BME280;21993;42.672;23.296;2023-05-10T03:19:27;94900.97;;;8.94;72.80
35892;BME280;21993;42.672;23.296;2023-05-10T03:21:59;94895.25;;;9.00;73.05
35892;BME280;21993;42.672;23.296;2023-05-10T03:24:27;94906.75;;;9.20;73.40
35892;BME280;21993;42.672;23.296;2023-05-10T03:26:56;94913.28;;;9.15;72.82
35892;BME280;21993;42.672;23.296;2023-05-10T03:29:25;94917.47;;;9.17;73.19
35892;BME280;21993;42.672;23.296;2023-05-10T03:31:51;94914.13;;;9.15;71.99
35892;BME280;21993;42.672;23.296;2023-05-10T03:34:16;94915.09;;;9.25;72.40
35892;BME280;21993;42.672;23.296;2023-05-10T03:36:42;94920.69;;;9.10;72.06
35892;BME280;21993;42.672;23.296;2023-05-10T03:39:07;94923.66;;;9.05;72.71
35892;BME280;21993;42.672;23.296;2023-05-10T03:41:34;94921.06;;;8.94;73.41
35892;BME280;21993;42.672;23.296;2023-05-10T03:43:59;94924.41;;;8.96;72.66
35892;BME280;21993;42.672;23.296;2023-05-10T03:46:25;94916.50;;;9.07;72.18
35892;BME280;21993;42.672;23.296;2023-05-10T03:48:50;94920.31;;;9.25;72.00
35892;BME280;21993;42.672;23.296;2023-05-10T03:51:15;94927.94;;;9.17;71.37
35892;BME280;21993;42.672;23.296;2023-05-10T03:53:41;94926.53;;;9.02;71.79
35892;BME280;21993;42.672;23.296;2023-05-10T03:56:06;94928.44;;;9.11;71.09
35892;BME280;21993;42.672;23.296;2023-05-10T03:58:32;94936.63;;;9.07;70.87
35892;BME280;21993;42.672;23.296;2023-05-10T04:00:57;94946.41;;;9.05;70.48
35892;BME280;21993;42.672;23.296;2023-05-10T04:03:22;94935.56;;;8.98;71.74
35892;BME280;21993;42.672;23.296;2023-05-10T04:05:48;94943.53;;;9.19;71.28
35892;BME280;21993;42.672;23.296;2023-05-10T04:08:13;94938.34;;;8.85;69.98
35892;BME280;21993;42.672;23.296;2023-05-10T04:10:41;94952.84;;;8.78;72.21
35892;BME280;21993;42.672;23.296;2023-05-10T04:13:06;94945.59;;;8.93;71.61
35892;BME280;21993;42.672;23.296;2023-05-10T04:15:32;94947.09;;;9.07;71.63
35892;BME280;21993;42.672;23.296;2023-05-10T04:17:57;94943.94;;;8.92;72.25
35892;BME280;21993;42.672;23.296;2023-05-10T04:20:23;94960.09;;;8.86;72.49
35892;BME280;21993;42.672;23.296;2023-05-10T04:22:48;94945.00;;;8.78;72.51
35892;BME280;21993;42.672;23.296;2023-05-10T04:25:13;94947.25;;;8.94;72.69
35892;BME280;21993;42.672;23.296;2023-05-10T04:27:39;94943.91;;;9.03;71.12
35892;BME280;21993;42.672;23.296;2023-05-10T04:30:05;94942.00;;;9.05;72.04
35892;BME280;21993;42.672;23.296;2023-05-10T04:32:30;94947.00;;;9.19;71.49
35892;BME280;21993;42.672;23.296;2023-05-10T04:34:56;94945.59;;;8.93;72.36
35892;BME280;21993;42.672;23.296;2023-05-10T04:37:23;94960.22;;;8.95;71.80
35892;BME280;21993;42.672;23.296;2023-05-10T04:39:48;94956.78;;;8.95;71.26
35892;BME280;21993;42.672;23.296;2023-05-10T04:42:14;94946.03;;;8.98;72.16
35892;BME280;21993;42.672;23.296;2023-05-10T04:44:40;94950.34;;;9.10;71.78
35892;BME280;21993;42.672;23.296;2023-05-10T04:47:05;94948.66;;;9.20;72.75
35892;BME280;21993;42.672;23.296;2023-05-10T04:49:31;94943.91;;;9.03;71.93
35892;BME280;21993;42.672;23.296;2023-05-10T04:51:57;94940.91;;;9.19;72.10
35892;BME280;21993;42.672;23.296;2023-05-10T04:54:22;94943.66;;;9.17;72.59
35892;BME280;21993;42.672;23.296;2023-05-10T04:56:48;94946.03;;;9.20;72.92
35892;BME280;21993;42.672;23.296;2023-05-10T04:59:13;94946.38;;;9.16;72.54
35892;BME280;21993;42.672;23.296;2023-05-10T05:01:39;94952.94;;;8.99;73.20
35892;BME280;21993;42.672;23.296;2023-05-10T05:04:04;94963.78;;;8.94;73.75
35892;BME280;21993;42.672;23.296;2023-05-10T05:06:30;94950.22;;;8.89;74.13
35892;BME280;21993;42.672;23.296;2023-05-10T05:08:55;94954.59;;;9.22;74.01
35892;BME280;21993;42.672;23.296;2023-05-10T05:11:21;94950.69;;;9.06;73.80
35892;BME280;21993;42.672;23.296;2023-05-10T05:13:46;94953.19;;;9.18;73.19
35892;BME280;21993;42.672;23.296;2023-05-10T05:16:12;94949.47;;;9.21;73.07
35892;BME280;21993;42.672;23.296;2023-05-10T05:18:37;94960.53;;;9.36;72.76
35892;BME280;21993;42.672;23.296;2023-05-10T05:21:02;94967.66;;;9.45;72.62
35892;BME280;21993;42.672;23.296;2023-05-10T05:23:28;94957.28;;;9.54;72.56
35892;BME280;21993;42.672;23.296;2023-05-10T05:25:54;94962.28;;;9.46;72.02
35892;BME280;21993;42.672;23.296;2023-05-10T05:28:20;94959.41;;;9.49;72.38
35892;BME280;21993;42.672;23.296;2023-05-10T05:30:46;94975.50;;;9.56;72.78
35892;BME280;21993;42.672;23.296;2023-05-10T05:33:13;94963.31;;;9.66;72.29
35892;BME280;21993;42.672;23.296;2023-05-10T05:35:39;94970.53;;;9.42;73.33
35892;BME280;21993;42.672;23.296;2023-05-10T05:38:04;94971.53;;;9.18;74.23
35892;BME280;21993;42.672;23.296;2023-05-10T05:40:30;94966.16;;;9.20;74.12
35892;BME280;21993;42.672;23.296;2023-05-10T05:42:55;94964.00;;;9.36;73.96
35892;BME280;21993;42.672;23.296;2023-05-10T05:45:21;94980.38;;;9.49;74.44
35892;BME280;21993;42.672;23.296;2023-05-10T05:47:46;94981.03;;;9.42;73.87
35892;BME280;21993;42.672;23.296;2023-05-10T05:50:12;94990.41;;;9.44;73.55
35892;BME280;21993;42.672;23.296;2023-05-10T05:52:37;94990.75;;;9.40;74.31
35892;BME280;21993;42.672;23.296;2023-05-10T05:55:03;94987.53;;;9.47;74.09
35892;BME280;21993;42.672;23.296;2023-05-10T05:57:28;94986.03;;;9.34;74.98
35892;BME280;21993;42.672;23.296;2023-05-10T05:59:54;94980.88;;;9.43;75.04
35892;BME280;21993;42.672;23.296;2023-05-10T06:02:19;94990.47;;;9.65;75.38
35892;BME280;21993;42.672;23.296;2023-05-10T06:04:44;94983.44;;;9.77;73.88
35892;BME280;21993;42.672;23.296;2023-05-10T06:07:10;94981.59;;;9.88;74.17
35892;BME280;21993;42.672;23.296;2023-05-10T06:09:35;94976.88;;;9.71;74.31
35892;BME280;21993;42.672;23.296;2023-05-10T06:12:01;94994.44;;;9.48;74.19
35892;BME280;21993;42.672;23.296;2023-05-10T06:14:26;94988.63;;;9.45;75.00
35892;BME280;21993;42.672;23.296;2023-05-10T06:16:52;94990.72;;;9.62;74.70
35892;BME280;21993;42.672;23.296;2023-05-10T06:19:18;94987.28;;;9.62;74.51
35892;BME280;21993;42.672;23.296;2023-05-10T06:21:43;94990.72;;;9.62;75.00
35892;BME280;21993;42.672;23.296;2023-05-10T06:24:08;94997.94;;;9.81;75.06
35892;BME280;21993;42.672;23.296;2023-05-10T06:26:34;94995.31;;;9.92;74.86
35892;BME280;21993;42.672;23.296;2023-05-10T06:28:59;95000.84;;;9.99;74.56
35892;BME280;21993;42.672;23.296;2023-05-10T06:31:24;95005.47;;;9.74;74.49
35892;BME280;21993;42.672;23.296;2023-05-10T06:33:50;95006.63;;;9.81;74.47
35892;BME280;21993;42.672;23.296;2023-05-10T06:36:15;95007.91;;;9.98;74.10
35892;BME280;21993;42.672;23.296;2023-05-10T06:38:41;94999.28;;;9.75;73.88
35892;BME280;21993;42.672;23.296;2023-05-10T06:41:06;95003.78;;;9.73;74.23
35892;BME280;21993;42.672;23.296;2023-05-10T06:43:32;94997.81;;;9.82;74.15
35892;BME280;21993;42.672;23.296;2023-05-10T06:45:57;95006.75;;;9.80;73.48
35892;BME280;21993;42.672;23.296;2023-05-10T06:48:22;95002.31;;;9.92;73.21
35892;BME280;21993;42.672;23.296;2023-05-10T06:50:48;95004.28;;;9.78;73.11
35892;BME280;21993;42.672;23.296;2023-05-10T06:53:13;95005.00;;;9.69;73.43
35892;BME280;21993;42.672;23.296;2023-05-10T06:55:39;95004.53;;;9.64;73.31
35892;BME280;21993;42.672;23.296;2023-05-10T06:58:04;95001.66;;;9.78;73.74
35892;BME280;21993;42.672;23.296;2023-05-10T07:00:30;95008.00;;;9.65;73.25
35892;BME280;21993;42.672;23.296;2023-05-10T07:02:55;95008.44;;;9.81;73.39
35892;BME280;21993;42.672;23.296;2023-05-10T07:05:21;95010.66;;;9.97;72.51
35892;BME280;21993;42.672;23.296;2023-05-10T07:07:46;95009.91;;;10.06;72.58
35892;BME280;21993;42.672;23.296;2023-05-10T07:10:12;95009.53;;;10.10;71.84
35892;BME280;21993;42.672;23.296;2023-05-10T07:12:37;95015.59;;;10.22;71.28
35892;BME280;21993;42.672;23.296;2023-05-10T07:15:04;95007.03;;;10.09;71.57
35892;BME280;21993;42.672;23.296;2023-05-10T07:17:29;95000.84;;;10.10;70.84
35892;BME280;21993;42.672;23.296;2023-05-10T07:19:54;95002.84;;;10.18;71.17
35892;BME280;21993;42.672;23.296;2023-05-10T07:22:20;95016.94;;;10.05;71.70
35892;BME280;21993;42.672;23.296;2023-05-10T07:24:45;95010.50;;;10.09;70.65
35892;BME280;21993;42.672;23.296;2023-05-10T07:27:11;95017.34;;;10.22;70.56
35892;BME280;21993;42.672;23.296;2023-05-10T07:29:38;95032.88;;;10.13;71.11
35892;BME280;21993;42.672;23.296;2023-05-10T07:32:03;95038.31;;;10.01;71.05
35892;BME280;21993;42.672;23.296;2023-05-10T07:34:29;95020.72;;;10.12;71.23
35892;BME280;21993;42.672;23.296;2023-05-10T07:36:57;95025.47;;;10.19;70.57
35892;BME280;21993;42.672;23.296;2023-05-10T07:39:23;95023.31;;;10.24;70.49
35892;BME280;21993;42.672;23.296;2023-05-10T07:41:48;95026.44;;;10.18;70.96
35892;BME280;21993;42.672;23.296;2023-05-10T07:44:14;95024.47;;;9.99;70.76
35892;BME280;21993;42.672;23.296;2023-05-10T07:46:39;95027.81;;;10.01;71.47
35892;BME280;21993;42.672;23.296;2023-05-10T07:49:05;95028.44;;;9.93;70.92
35892;BME280;21993;42.672;23.296;2023-05-10T07:51:30;95027.88;;;9.78;71.55
35892;BME280;21993;42.672;23.296;2023-05-10T07:53:56;95027.59;;;9.93;71.57
35892;BME280;21993;42.672;23.296;2023-05-10T07:56:27;95030.00;;;9.73;71.71
35892;BME280;21993;42.672;23.296;2023-05-10T07:58:58;95028.66;;;9.90;71.07
35892;BME280;21993;42.672;23.296;2023-05-10T08:01:25;95040.97;;;9.78;70.95
35892;BME280;21993;42.672;23.296;2023-05-10T08:03:51;95030.22;;;9.81;71.49
35892;BME280;21993;42.672;23.296;2023-05-10T08:06:17;95037.25;;;9.92;71.34
35892;BME280;21993;42.672;23.296;2023-05-10T08:08:43;95031.22;;;10.12;70.79
35892;BME280;21993;42.672;23.296;2023-05-10T08:11:14;95047.53;;;10.16;70.45
35892;BME280;21993;42.672;23.296;2023-05-10T08:13:39;95039.28;;;10.32;70.12
35892;BME280;21993;42.672;23.296;2023-05-10T08:16:04;95026.94;;;10.11;69.58
35892;BME280;21993;42.672;23.296;2023-05-10T08:18:30;95032.31;;;10.10;70.42
35892;BME280;21993;42.672;23.296;2023-05-10T08:20:55;95033.13;;;10.10;70.52
35892;BME280;21993;42.672;23.296;2023-05-10T08:23:21;95026.91;;;10.23;70.16
35892;BME280;21993;42.672;23.296;2023-05-10T08:25:46;95032.84;;;10.36;70.09
35892;BME280;21993;42.672;23.296;2023-05-10T08:28:11;95031.09;;;10.46;70.64
35892;BME280;21993;42.672;23.296;2023-05-10T08:30:37;95043.31;;;10.36;70.24
35892;BME280;21993;42.672;23.296;2023-05-10T08:33:02;95039.91;;;10.24;71.92
35892;BME280;21993;42.672;23.296;2023-05-10T08:35:28;95044.19;;;10.14;72.36
35892;BME280;21993;42.672;23.296;2023-05-10T08:37:53;95042.16;;;10.29;72.41
35892;BME280;21993;42.672;23.296;2023-05-10T08:40:19;95048.31;;;10.39;71.61
35892;BME280;21993;42.672;23.296;2023-05-10T08:42:51;95031.94;;;10.47;71.89
35892;BME280;21993;42.672;23.296;2023-05-10T08:45:22;95042.38;;;10.37;72.61
35892;BME280;21993;42.672;23.296;2023-05-10T08:47:48;95039.69;;;10.48;72.63
35892;BME280;21993;42.672;23.296;2023-05-10T08:50:16;95041.03;;;10.42;73.07
35892;BME280;21993;42.672;23.296;2023-05-10T08:52:42;95047.69;;;10.47;72.96
35892;BME280;21993;42.672;23.296;2023-05-10T08:55:10;95039.59;;;10.59;72.35
35892;BME280;21993;42.672;23.296;2023-05-10T08:57:35;95033.34;;;10.51;72.38
35892;BME280;21993;42.672;23.296;2023-05-10T09:00:01;95036.97;;;10.59;73.28
35892;BME280;21993;42.672;23.296;2023-05-10T09:02:27;95033.84;;;10.65;72.60
35892;BME280;21993;42.672;23.296;2023-05-10T09:04:53;95044.50;;;10.64;72.51
35892;BME280;21993;42.672;23.296;2023-05-10T09:07:18;95035.84;;;10.52;73.06
35892;BME280;21993;42.672;23.296;2023-05-10T09:09:45;95043.25;;;10.47;72.76
35892;BME280;21993;42.672;23.296;2023-05-10T09:12:12;95043.81;;;10.51;72.98
35892;BME280;21993;42.672;23.296;2023-05-10T09:14:38;95049.06;;;10.30;73.17
35892;BME280;21993;42.672;23.296;2023-05-10T09:17:04;95051.72;;;10.07;73.89
35892;BME280;21993;42.672;23.296;2023-05-10T09:19:30;95037.75;;;10.29;73.32
35892;BME280;21993;42.672;23.296;2023-05-10T09:21:55;95037.28;;;10.13;73.05
35892;BME280;21993;42.672;23.296;2023-05-10T09:24:25;95037.28;;;10.13;73.92
35892;BME280;21993;42.672;23.296;2023-05-10T09:26:52;95044.47;;;10.00;73.43
35892;BME280;21993;42.672;23.296;2023-05-10T09:29:17;95033.97;;;10.11;73.02
35892;BME280;21993;42.672;23.296;2023-05-10T09:31:47;95036.94;;;10.18;73.05
35892;BME280;21993;42.672;23.296;2023-05-10T09:34:22;95037.75;;;10.29;72.63
35892;BME280;21993;42.672;23.296;2023-05-10T09:36:54;95035.25;;;10.16;73.01
35892;BME280;21993;42.672;23.296;2023-05-10T09:39:20;95033.75;;;10.03;73.43
35892;BME280;21993;42.672;23.296;2023-05-10T09:41:45;95039.34;;;10.09;73.17
35892;BME280;21993;42.672;23.296;2023-05-10T09:44:12;95034.09;;;10.09;72.41
35892;BME280;21993;42.672;23.296;2023-05-10T09:46:42;95035.63;;;10.23;71.84
35892;BME280;21993;42.672;23.296;2023-05-10T09:49:08;95036.94;;;10.18;72.31
35892;BME280;21993;42.672;23.296;2023-05-10T09:51:34;95039.50;;;9.97;72.43
35892;BME280;21993;42.672;23.296;2023-05-10T09:54:11;95038.88;;;10.04;72.38
35892;BME280;21993;42.672;23.296;2023-05-10T09:56:37;95025.41;;;10.09;72.44
35892;BME280;21993;42.672;23.296;2023-05-10T09:59:05;95018.66;;;10.16;71.98
35892;BME280;21993;42.672;23.296;2023-05-10T10:01:31;95019.38;;;10.29;71.91
35892;BME280;21993;42.672;23.296;2023-05-10T10:03:57;95014.72;;;10.54;72.38
35892;BME280;21993;42.672;23.296;2023-05-10T10:06:24;95011.06;;;10.45;71.80
35892;BME280;21993;42.672;23.296;2023-05-10T10:08:50;95004.47;;;10.51;70.96
35892;BME280;21993;42.672;23.296;2023-05-10T10:11:16;95015.09;;;10.28;71.18
35892;BME280;21993;42.672;23.296;2023-05-10T10:13:42;95009.78;;;10.39;71.56
35892;BME280;21993;42.672;23.296;2023-05-10T10:16:08;95011.91;;;10.46;71.02
35892;BME280;21993;42.672;23.296;2023-05-10T10:18:35;94997.25;;;10.43;70.77
35892;BME280;21993;42.672;23.296;2023-05-10T10:21:05;95013.19;;;10.51;70.75
35892;BME280;21993;42.672;23.296;2023-05-10T10:23:31;95019.44;;;10.39;70.61
35892;BME280;21993;42.672;23.296;2023-05-10T10:25:56;95001.34;;;10.36;70.87
35892;BME280;21993;42.672;23.296;2023-05-10T10:31:27;95006.78;;;10.44;70.78
35892;BME280;21993;42.672;23.296;2023-05-10T10:34:00;95012.81;;;10.35;70.75
35892;BME280;21993;42.672;23.296;2023-05-10T10:36:27;95013.03;;;10.32;71.26
35892;BME280;21993;42.672;23.296;2023-05-10T10:38:59;95013.22;;;10.40;70.43
35892;BME280;21993;42.672;23.296;2023-05-10T10:41:29;95008.81;;;10.40;70.93
35892;BME280;21993;42.672;23.296;2023-05-10T10:50:12;95008.88;;;10.50;70.78
35892;BME280;21993;42.672;23.296;2023-05-10T10:52:44;95007.94;;;10.51;70.20
35892;BME280;21993;42.672;23.296;2023-05-10T10:55:18;95006.97;;;10.52;70.10
35892;BME280;21993;42.672;23.296;2023-05-10T10:57:49;95000.97;;;10.61;69.91
35892;BME280;21993;42.672;23.296;2023-05-10T11:00:21;95009.44;;;10.75;69.83
35892;BME280;21993;42.672;23.296;2023-05-10T11:02:52;95024.38;;;10.74;69.66
35892;BME280;21993;42.672;23.296;2023-05-10T11:07:59;95003.81;;;10.79;69.46
35892;BME280;21993;42.672;23.296;2023-05-10T11:10:25;95002.78;;;10.91;69.16
35892;BME280;21993;42.672;23.296;2023-05-10T11:15:33;94999.53;;;10.78;69.22
35892;BME280;21993;42.672;23.296;2023-05-10T11:17:58;95007.41;;;10.78;69.83
35892;BME280;21993;42.672;23.296;2023-05-10T11:20:27;95011.53;;;10.71;69.95
35892;BME280;21993;42.672;23.296;2023-05-10T11:23:11;95008.13;;;10.80;69.61
35892;BME280;21993;42.672;23.296;2023-05-10T11:25:43;95005.16;;;10.94;69.19
35892;BME280;21993;42.672;23.296;2023-05-10T11:28:10;95005.66;;;10.88;68.93
35892;BME280;21993;42.672;23.296;2023-05-10T11:30:37;95005.16;;;10.74;69.46
35892;BME280;21993;42.672;23.296;2023-05-10T11:33:03;95004.66;;;10.80;69.34
35892;BME280;21993;42.672;23.296;2023-05-10T11:35:28;94998.94;;;10.95;69.19
35892;BME280;21993;42.672;23.296;2023-05-10T11:37:54;95024.50;;;10.93;69.61
35892;BME280;21993;42.672;23.296;2023-05-10T11:40:21;95001.56;;;10.95;69.39
35892;BME280;21993;42.672;23.296;2023-05-10T11:42:50;95007.59;;;10.86;69.12
35892;BME280;21993;42.672;23.296;2023-05-10T11:45:15;95001.75;;;11.04;69.54
35892;BME280;21993;42.672;23.296;2023-05-10T11:47:41;95009.50;;;11.05;69.23
35892;BME280;21993;42.672;23.296;2023-05-10T11:50:09;95001.06;;;11.02;69.48
35892;BME280;21993;42.672;23.296;2023-05-10T11:52:36;94998.88;;;11.16;68.93
35892;BME280;21993;42.672;23.296;2023-05-10T11:55:03;94998.53;;;11.31;68.66
35892;BME280;21993;42.672;23.296;2023-05-10T11:57:28;94989.78;;;11.20;68.63
35892;BME280;21993;42.672;23.296;2023-05-10T11:59:54;95005.22;;;11.44;68.17
35892;BME280;21993;42.672;23.296;2023-05-10T12:02:21;95005.31;;;11.33;68.55
35892;BME280;21993;42.672;23.296;2023-05-10T12:04:46;95001.16;;;11.31;68.90
35892;BME280;21993;42.672;23.296;2023-05-10T12:07:12;95003.69;;;11.02;69.52
35892;BME280;21993;42.672;23.296;2023-05-10T12:09:43;94997.22;;;11.15;69.31
35892;BME280;21993;42.672;23.296;2023-05-10T12:12:08;94991.44;;;11.21;68.88
35892;BME280;21993;42.672;23.296;2023-05-10T12:14:35;94992.00;;;11.25;69.38
35892;BME280;21993;42.672;23.296;2023-05-10T12:17:00;94986.22;;;11.31;69.23
35892;BME280;21993;42.672;23.296;2023-05-10T12:19:26;95007.41;;;11.39;69.75
35892;BME280;21993;42.672;23.296;2023-05-10T12:21:51;95009.53;;;11.15;69.06
35892;BME280;21993;42.672;23.296;2023-05-10T12:24:17;94988.75;;;11.02;69.16
35892;BME280;21993;42.672;23.296;2023-05-10T12:26:43;94983.09;;;11.07;69.21
35892;BME280;21993;42.672;23.296;2023-05-10T12:31:51;95006.03;;;10.84;69.93
35892;BME280;21993;42.672;23.296;2023-05-10T12:34:30;94989.91;;;10.88;70.15
35892;BME280;21993;42.672;23.296;2023-05-10T12:36:56;94981.25;;;10.97;70.02
35892;BME280;21993;42.672;23.296;2023-05-10T12:39:21;94974.88;;;11.00;69.89
35892;BME280;21993;42.672;23.296;2023-05-10T12:41:47;94975.53;;;10.92;69.86
35892;BME280;21993;42.672;23.296;2023-05-10T12:44:12;94976.88;;;11.08;69.55
35892;BME280;21993;42.672;23.296;2023-05-10T12:46:38;94976.81;;;10.98;69.88
35892;BME280;21993;42.672;23.296;2023-05-10T12:49:03;94970.28;;;11.23;69.32
35892;BME280;21993;42.672;23.296;2023-05-10T12:51:28;94986.09;;;11.33;69.97
35892;BME280;21993;42.672;23.296;2023-05-10T12:53:54;94971.56;;;11.28;69.73
35892;BME280;21993;42.672;23.296;2023-05-10T12:56:20;94972.19;;;11.11;69.35
35892;BME280;21993;42.672;23.296;2023-05-10T12:58:45;94972.44;;;11.08;69.38
35892;BME280;21993;42.672;23.296;2023-05-10T13:01:13;94964.47;;;11.19;69.52
35892;BME280;21993;42.672;23.296;2023-05-10T13:03:39;94959.16;;;11.10;69.94
35892;BME280;21993;42.672;23.296;2023-05-10T13:06:05;94964.66;;;11.27;69.64
35892;BME280;21993;42.672;23.296;2023-05-10T13:08:31;94955.06;;;11.26;69.46
35892;BME280;21993;42.672;23.296;2023-05-10T13:10:59;94940.69;;;11.21;70.08
35892;BME280;21993;42.672;23.296;2023-05-10T13:13:25;94943.47;;;11.29;69.24
35892;BME280;21993;42.672;23.296;2023-05-10T13:15:50;94946.78;;;11.21;69.75
35892;BME280;21993;42.672;23.296;2023-05-10T13:18:15;94941.25;;;11.34;69.44
35892;BME280;21993;42.672;23.296;2023-05-10T13:20:41;94942.00;;;11.36;69.28
35892;BME280;21993;42.672;23.296;2023-05-10T13:23:08;94938.22;;;11.19;69.09
35892;BME280;21993;42.672;23.296;2023-05-10T13:25:33;94938.63;;;11.24;69.08
35892;BME280;21993;42.672;23.296;2023-05-10T13:27:59;94930.38;;;11.39;69.14
35892;BME280;21993;42.672;23.296;2023-05-10T13:30:25;94937.41;;;11.38;69.11
35892;BME280;21993;42.672;23.296;2023-05-10T13:32:50;94937.81;;;11.34;68.93